createdAt,value
2022-12-01T00:02:18.606Z,28.30
2022-12-01T00:04:48.409Z,29.37
2022-12-01T00:07:15.808Z,27.47
2022-12-01T00:09:58.537Z,28.83
2022-12-01T00:12:25.941Z,28.67
2022-12-01T00:15:01.021Z,29.67
2022-12-01T00:17:29.323Z,29.50
2022-12-01T00:19:58.098Z,27.97
2022-12-01T00:22:26.590Z,27.83
2022-12-01T00:24:56.368Z,24.90
2022-12-01T00:27:23.757Z,27.23
2022-12-01T00:29:51.264Z,28.10
2022-12-01T00:32:18.703Z,26.57
2022-12-01T00:34:46.063Z,28.67
2022-12-01T00:37:13.507Z,27.43
2022-12-01T00:39:40.903Z,27.80
2022-12-01T00:42:13.303Z,28.40
2022-12-01T00:44:41.012Z,24.37
2022-12-01T00:47:08.436Z,26.77
2022-12-01T00:49:35.852Z,26.20
2022-12-01T00:52:03.257Z,24.60
2022-12-01T00:54:32.124Z,27.23
2022-12-01T00:56:59.772Z,25.13
2022-12-01T00:59:28.519Z,26.93
2022-12-01T01:01:56.137Z,25.70
2022-12-01T01:04:23.690Z,27.77
2022-12-01T01:06:51.069Z,24.87
2022-12-01T01:09:18.616Z,25.03
2022-12-01T01:11:46.065Z,24.73
2022-12-01T01:14:13.480Z,26.33
2022-12-01T01:16:42.319Z,28.33
2022-12-01T01:19:09.830Z,25.33
2022-12-01T01:21:37.251Z,24.37
2022-12-01T01:24:04.890Z,26.00
2022-12-01T01:26:32.913Z,24.43
2022-12-01T01:29:01.837Z,26.37
2022-12-01T01:31:30.709Z,25.57
2022-12-01T01:33:59.544Z,26.27
2022-12-01T01:36:27.259Z,25.97
2022-12-01T01:38:55.240Z,24.73
2022-12-01T01:41:23.248Z,25.30
2022-12-01T01:43:51.389Z,24.97
2022-12-01T01:46:21.155Z,24.23
2022-12-01T01:48:49.837Z,25.67
2022-12-01T01:51:20.578Z,26.17
2022-12-01T01:53:49.072Z,24.27
2022-12-01T01:56:16.472Z,25.23
2022-12-01T01:58:44.987Z,23.90
2022-12-01T02:01:12.473Z,24.13
2022-12-01T02:03:40.916Z,25.40
2022-12-01T02:06:08.746Z,25.20
2022-12-01T02:08:38.316Z,26.17
2022-12-01T02:11:13.225Z,26.00
2022-12-01T02:13:43.335Z,24.07
2022-12-01T02:16:13.509Z,25.23
2022-12-01T02:18:46.250Z,21.97
2022-12-01T02:21:22.762Z,22.90
2022-12-01T02:24:03.153Z,24.57
2022-12-01T02:26:48.323Z,26.50
2022-12-01T02:29:34.514Z,24.87
2022-12-01T02:32:09.511Z,23.63
2022-12-01T02:34:41.408Z,20.90
2022-12-01T02:37:11.762Z,23.10
2022-12-01T02:39:40.551Z,23.70
2022-12-01T02:42:09.927Z,22.43
2022-12-01T02:44:39.832Z,21.30
2022-12-01T02:47:11.432Z,21.30
2022-12-01T02:49:41.519Z,22.03
2022-12-01T02:52:11.108Z,19.60
2022-12-01T02:54:38.527Z,19.07
2022-12-01T02:57:05.943Z,19.30
2022-12-01T02:59:33.374Z,19.27
2022-12-01T03:02:05.406Z,19.63
2022-12-01T03:04:40.065Z,19.03
2022-12-01T03:07:12.069Z,18.97
2022-12-01T03:09:42.653Z,17.80
2022-12-01T03:12:15.191Z,18.77
2022-12-01T03:14:47.231Z,19.00
2022-12-01T03:17:16.914Z,18.60
2022-12-01T03:19:49.688Z,16.83
2022-12-01T03:22:22.846Z,16.27
2022-12-01T03:24:50.418Z,15.17
2022-12-01T03:27:19.616Z,14.80
2022-12-01T03:29:49.581Z,14.90
2022-12-01T03:32:19.361Z,15.77
2022-12-01T03:34:50.854Z,14.27
2022-12-01T03:37:21.104Z,15.10
2022-12-01T03:39:49.643Z,14.63
2022-12-01T03:42:19.122Z,14.70
2022-12-01T03:44:49.254Z,13.97
2022-12-01T03:47:18.055Z,13.83
2022-12-01T03:49:46.618Z,13.80
2022-12-01T03:52:20.008Z,14.73
2022-12-01T03:54:53.106Z,14.43
2022-12-01T03:57:22.785Z,14.17
2022-12-01T03:59:50.614Z,13.97
2022-12-01T04:02:18.491Z,13.97
2022-12-01T04:04:45.927Z,14.00
2022-12-01T04:07:14.772Z,14.43
2022-12-01T04:09:43.515Z,13.83
2022-12-01T04:12:30.777Z,14.13
2022-12-01T04:14:58.330Z,13.43
2022-12-01T04:17:26.084Z,13.77
2022-12-01T04:19:53.522Z,15.37
2022-12-01T04:22:20.988Z,15.00
2022-12-01T04:24:50.846Z,14.37
2022-12-01T04:27:18.240Z,15.07
2022-12-01T04:29:45.842Z,15.30
2022-12-01T04:32:13.711Z,14.90
2022-12-01T04:34:41.124Z,15.40
2022-12-01T04:37:09.892Z,15.13
2022-12-01T04:39:37.391Z,15.17
2022-12-01T04:42:06.344Z,13.97
2022-12-01T04:44:35.273Z,14.83
2022-12-01T04:47:03.230Z,13.97
2022-12-01T04:49:30.763Z,15.47
2022-12-01T04:51:58.322Z,15.00
2022-12-01T04:54:25.743Z,15.87
2022-12-01T04:56:53.153Z,15.70
2022-12-01T04:59:22.086Z,15.60
2022-12-01T05:01:49.527Z,15.43
2022-12-01T05:04:16.955Z,16.67
2022-12-01T05:06:44.478Z,15.23
2022-12-01T05:09:17.094Z,15.83
2022-12-01T05:11:45.281Z,16.10
2022-12-01T05:14:12.702Z,16.20
2022-12-01T05:16:41.581Z,14.77
2022-12-01T05:19:26.808Z,17.57
2022-12-01T05:21:54.235Z,14.93
2022-12-01T05:24:22.008Z,15.80
2022-12-01T05:26:49.783Z,14.63
2022-12-01T05:29:17.256Z,14.77
2022-12-01T05:31:47.335Z,15.60
2022-12-01T05:34:14.972Z,15.83
2022-12-01T05:36:42.350Z,17.03
2022-12-01T05:39:09.821Z,16.03
2022-12-01T05:41:37.225Z,17.03
2022-12-01T05:44:04.719Z,15.70
2022-12-01T05:46:32.607Z,16.90
2022-12-01T05:49:01.362Z,14.47
2022-12-01T05:51:28.760Z,14.70
2022-12-01T05:53:56.168Z,16.80
2022-12-01T05:56:23.572Z,16.00
2022-12-01T05:58:51.021Z,16.50
2022-12-01T06:01:18.518Z,16.97
2022-12-01T06:03:46.019Z,16.53
2022-12-01T06:06:14.871Z,14.77
2022-12-01T06:08:42.282Z,17.43
2022-12-01T06:11:09.812Z,16.20
2022-12-01T06:13:37.251Z,16.40
2022-12-01T06:16:06.338Z,16.03
2022-12-01T06:18:34.532Z,15.10
2022-12-01T06:21:02.019Z,16.77
2022-12-01T06:23:30.978Z,16.47
2022-12-01T06:25:58.648Z,15.40
2022-12-01T06:28:26.232Z,16.50
2022-12-01T06:30:59.333Z,16.90
2022-12-01T06:33:30.134Z,17.13
2022-12-01T06:36:00.782Z,16.00
2022-12-01T06:38:30.855Z,16.47
2022-12-01T06:40:59.637Z,18.70
2022-12-01T06:43:27.070Z,17.87
2022-12-01T06:46:00.869Z,16.03
2022-12-01T06:48:30.381Z,15.57
2022-12-01T06:50:58.294Z,16.23
2022-12-01T06:53:27.268Z,15.90
2022-12-01T06:55:54.728Z,17.90
2022-12-01T06:58:23.541Z,15.93
2022-12-01T07:00:52.369Z,17.03
2022-12-01T07:03:19.915Z,17.73
2022-12-01T07:05:55.339Z,19.40
2022-12-01T07:08:22.747Z,18.00
2022-12-01T07:10:57.046Z,17.83
2022-12-01T07:13:31.545Z,18.23
2022-12-01T07:16:00.652Z,17.50
2022-12-01T07:18:28.144Z,17.17
2022-12-01T07:20:59.334Z,16.20
2022-12-01T07:23:26.719Z,13.60
2022-12-01T07:25:58.824Z,15.77
2022-12-01T07:28:27.616Z,15.10
2022-12-01T07:30:55.201Z,15.17
2022-12-01T07:33:22.604Z,14.67
2022-12-01T07:35:50.031Z,16.90
2022-12-01T07:38:21.933Z,13.97
2022-12-01T07:40:49.745Z,15.17
2022-12-01T07:43:17.193Z,16.57
2022-12-01T07:45:46.051Z,16.00
2022-12-01T07:48:13.543Z,17.60
2022-12-01T07:50:41.014Z,17.10
2022-12-01T07:53:08.433Z,16.90
2022-12-01T07:55:35.854Z,17.80
2022-12-01T07:58:03.291Z,18.50
2022-12-01T08:00:30.691Z,19.53
2022-12-01T08:02:59.529Z,19.23
2022-12-01T08:05:26.995Z,20.87
2022-12-01T08:07:54.695Z,18.47
2022-12-01T08:10:22.122Z,20.63
2022-12-01T08:12:49.561Z,22.20
2022-12-01T08:15:16.985Z,21.17
2022-12-01T08:17:44.381Z,24.73
2022-12-01T08:20:13.668Z,19.97
2022-12-01T08:22:41.070Z,21.10
2022-12-01T08:25:09.031Z,21.43
2022-12-01T08:27:36.430Z,20.90
2022-12-01T08:30:03.875Z,21.30
2022-12-01T08:32:31.257Z,20.43
2022-12-01T08:34:58.686Z,20.47
2022-12-01T08:37:27.470Z,19.90
2022-12-01T08:39:54.870Z,19.67
2022-12-01T08:42:22.293Z,17.10
2022-12-01T08:44:49.869Z,17.83
2022-12-01T08:47:19.077Z,18.03
2022-12-01T08:49:46.859Z,16.73
2022-12-01T08:52:14.512Z,16.20
2022-12-01T08:54:43.275Z,16.10
2022-12-01T08:57:10.665Z,15.30
2022-12-01T08:59:38.090Z,14.80
2022-12-01T09:02:07.302Z,14.33
2022-12-01T09:04:34.788Z,14.10
2022-12-01T09:07:02.204Z,13.53
2022-12-01T09:09:30.144Z,14.10
2022-12-01T09:11:59.020Z,11.97
2022-12-01T09:14:26.437Z,13.47
2022-12-01T09:16:53.859Z,12.80
2022-12-01T09:19:24.902Z,14.07
2022-12-01T09:21:52.676Z,13.10
2022-12-01T09:24:20.093Z,13.50
2022-12-01T09:26:47.480Z,13.50
2022-12-01T09:29:16.622Z,13.83
2022-12-01T09:31:44.637Z,15.13
2022-12-01T09:34:13.570Z,13.80
2022-12-01T09:36:41.187Z,14.40
2022-12-01T09:39:09.163Z,13.60
2022-12-01T09:41:38.732Z,14.77
2022-12-01T09:44:14.169Z,15.53
2022-12-01T09:46:44.263Z,16.23
2022-12-01T09:49:15.479Z,15.83
2022-12-01T09:51:42.924Z,16.03
2022-12-01T09:54:11.965Z,15.67
2022-12-01T09:56:42.114Z,15.90
2022-12-01T09:59:17.629Z,15.77
2022-12-01T10:01:48.967Z,15.33
2022-12-01T10:04:18.603Z,14.40
2022-12-01T10:06:49.638Z,15.20
2022-12-01T10:09:21.442Z,15.00
2022-12-01T10:11:49.427Z,15.20
2022-12-01T10:14:20.497Z,16.63
2022-12-01T10:16:53.182Z,14.77
2022-12-01T10:19:24.227Z,15.47
2022-12-01T10:22:00.222Z,16.40
2022-12-01T10:24:32.722Z,15.37
2022-12-01T10:27:06.773Z,15.87
2022-12-01T10:29:36.462Z,15.40
2022-12-01T10:32:07.916Z,15.07
2022-12-01T10:34:36.433Z,13.10
2022-12-01T10:37:04.159Z,13.63
2022-12-01T10:39:32.354Z,14.83
2022-12-01T10:42:04.693Z,14.40
2022-12-01T10:44:32.368Z,16.20
2022-12-01T10:46:59.891Z,13.80
2022-12-01T10:49:37.393Z,13.47
2022-12-01T10:52:04.824Z,15.00
2022-12-01T10:54:36.765Z,14.60
2022-12-01T10:57:04.751Z,14.30
2022-12-01T10:59:33.851Z,13.37
2022-12-01T11:02:02.411Z,13.17
2022-12-01T11:04:44.910Z,13.83
2022-12-01T11:07:20.080Z,12.93
2022-12-01T11:09:49.927Z,14.27
2022-12-01T11:12:20.454Z,13.93
2022-12-01T11:14:49.431Z,15.13
2022-12-01T11:17:17.863Z,14.77
2022-12-01T11:19:46.855Z,14.97
2022-12-01T11:22:20.481Z,14.07
2022-12-01T11:24:57.017Z,14.60
2022-12-01T11:27:25.823Z,16.10
2022-12-01T11:29:54.353Z,14.63
2022-12-01T11:32:23.186Z,14.30
2022-12-01T11:34:53.439Z,15.03
2022-12-01T11:37:22.161Z,15.27
2022-12-01T11:39:50.496Z,14.07
2022-12-01T11:42:22.472Z,15.57
2022-12-01T11:44:52.192Z,15.33
2022-12-01T11:47:23.547Z,16.33
2022-12-01T11:49:55.113Z,15.40
2022-12-01T11:52:24.377Z,14.60
2022-12-01T11:55:08.395Z,15.10
2022-12-01T11:57:37.686Z,15.03
2022-12-01T12:00:13.258Z,14.40
2022-12-01T12:02:43.675Z,15.83
2022-12-01T12:05:35.699Z,14.80
2022-12-01T12:08:07.062Z,14.63
2022-12-01T12:10:41.822Z,14.03
2022-12-01T12:13:15.996Z,14.60
2022-12-01T12:15:50.158Z,14.30
2022-12-01T12:18:32.563Z,14.50
2022-12-01T12:21:10.513Z,14.50
2022-12-01T12:23:45.769Z,14.97
2022-12-01T12:26:18.748Z,15.03
2022-12-01T12:28:53.701Z,13.93
2022-12-01T12:31:25.499Z,14.27
2022-12-01T12:34:03.034Z,14.90
2022-12-01T12:36:37.595Z,15.30
2022-12-01T12:39:16.283Z,13.30
2022-12-01T12:41:45.797Z,13.27
2022-12-01T12:44:25.673Z,13.73
2022-12-01T12:46:56.657Z,13.27
2022-12-01T12:49:28.953Z,14.03
2022-12-01T12:52:07.869Z,13.07
2022-12-01T12:54:42.784Z,13.13
2022-12-01T12:57:14.293Z,14.80
2022-12-01T12:59:43.929Z,14.57
2022-12-01T13:02:13.777Z,13.40
2022-12-01T13:04:43.325Z,14.03
2022-12-01T13:07:17.094Z,13.50
2022-12-01T13:09:46.324Z,13.50
2022-12-01T13:12:16.809Z,12.83
2022-12-01T13:14:46.252Z,14.43
2022-12-01T13:17:17.326Z,13.00
2022-12-01T13:19:45.139Z,13.57
2022-12-01T13:22:14.896Z,14.00
2022-12-01T13:24:42.796Z,13.80
2022-12-01T13:27:15.175Z,13.00
2022-12-01T13:29:46.008Z,13.17
2022-12-01T13:32:26.836Z,13.20
2022-12-01T13:34:54.346Z,13.83
2022-12-01T13:37:27.835Z,12.97
2022-12-01T13:39:56.302Z,13.00
2022-12-01T13:42:24.884Z,12.80
2022-12-01T13:44:53.509Z,13.43
2022-12-01T13:47:40.667Z,12.33
2022-12-01T13:50:26.892Z,15.80
2022-12-01T13:53:07.529Z,13.93
2022-12-01T13:55:35.087Z,14.83
2022-12-01T13:58:20.965Z,14.80
2022-12-01T14:00:48.440Z,15.00
2022-12-01T14:03:39.474Z,15.30
2022-12-01T14:06:08.482Z,14.83
2022-12-01T14:08:37.895Z,13.23
2022-12-01T14:11:06.873Z,14.87
2022-12-01T14:13:43.528Z,15.30
2022-12-01T14:16:11.065Z,13.77
2022-12-01T14:18:40.015Z,13.53
2022-12-01T14:21:09.325Z,12.10
2022-12-01T14:23:39.544Z,12.90
2022-12-01T14:26:17.519Z,13.33
2022-12-01T14:29:03.733Z,12.67
2022-12-01T14:31:49.758Z,13.07
2022-12-01T14:34:19.374Z,12.50
2022-12-01T14:36:49.091Z,11.93
2022-12-01T14:39:19.719Z,13.20
2022-12-01T14:41:48.531Z,13.40
2022-12-01T14:44:23.050Z,12.87
2022-12-01T14:46:52.595Z,13.47
2022-12-01T14:49:22.907Z,13.03
2022-12-01T14:51:52.226Z,13.40
2022-12-01T14:54:24.589Z,13.37
2022-12-01T14:56:53.378Z,13.10
2022-12-01T14:59:21.943Z,13.00
2022-12-01T15:01:51.208Z,12.97
2022-12-01T15:04:19.087Z,13.43
2022-12-01T15:06:46.923Z,14.13
2022-12-01T15:12:07.395Z,13.13
2022-12-01T15:14:36.222Z,12.67
2022-12-01T15:17:05.507Z,13.00
2022-12-01T15:19:36.751Z,15.40
2022-12-01T15:22:06.145Z,16.70
2022-12-01T15:24:34.136Z,17.27
2022-12-01T15:27:04.005Z,18.53
2022-12-01T15:29:34.557Z,17.93
2022-12-01T15:32:02.638Z,17.13
2022-12-01T15:34:31.921Z,17.97
2022-12-01T15:36:59.940Z,17.87
2022-12-01T15:39:31.531Z,21.67
2022-12-01T15:41:59.491Z,17.57
2022-12-01T15:44:28.377Z,22.63
2022-12-01T15:46:57.431Z,18.53
2022-12-01T15:49:27.576Z,17.77
2022-12-01T15:51:55.610Z,18.63
2022-12-01T15:54:24.770Z,18.50
2022-12-01T15:56:53.195Z,18.67
2022-12-01T15:59:26.039Z,17.67
2022-12-01T16:01:53.668Z,20.03
2022-12-01T16:04:23.631Z,17.70
2022-12-01T16:06:56.463Z,18.30
2022-12-01T16:09:25.181Z,18.63
2022-12-01T16:12:19.673Z,18.03
2022-12-01T16:14:51.368Z,17.00
2022-12-01T16:17:19.102Z,16.47
2022-12-01T16:19:47.868Z,16.13
2022-12-01T16:22:16.983Z,16.30
2022-12-01T16:24:47.114Z,17.27
2022-12-01T16:27:19.982Z,16.07
2022-12-01T16:29:49.999Z,17.43
2022-12-01T16:32:20.985Z,17.67
2022-12-01T16:34:50.774Z,18.57
2022-12-01T16:37:19.338Z,16.30
2022-12-01T16:39:46.838Z,17.93
2022-12-01T16:42:15.761Z,17.83
2022-12-01T16:44:44.599Z,17.93
2022-12-01T16:47:16.007Z,18.37
2022-12-01T16:49:43.401Z,18.93
2022-12-01T16:54:59.762Z,19.40
2022-12-01T16:57:27.362Z,18.53
2022-12-01T16:59:55.003Z,17.93
2022-12-01T17:02:22.546Z,17.40
2022-12-01T17:04:50.246Z,17.63
2022-12-01T17:07:19.178Z,18.40
2022-12-01T17:09:46.759Z,18.20
2022-12-01T17:12:14.146Z,18.63
2022-12-01T17:14:41.526Z,18.33
2022-12-01T17:17:10.083Z,18.67
2022-12-01T17:19:37.490Z,16.10
2022-12-01T17:22:04.899Z,20.00
2022-12-01T17:24:33.764Z,17.27
2022-12-01T17:27:01.150Z,19.27
2022-12-01T17:29:28.557Z,18.27
2022-12-01T17:31:55.959Z,19.20
2022-12-01T17:34:23.402Z,17.80
2022-12-01T17:36:51.659Z,19.10
2022-12-01T17:39:19.339Z,19.97
2022-12-01T17:41:48.089Z,18.43
2022-12-01T17:44:15.484Z,20.23
2022-12-01T17:46:42.906Z,19.77
2022-12-01T17:49:10.602Z,18.97
2022-12-01T17:51:39.377Z,18.67
2022-12-01T17:54:07.176Z,19.67
2022-12-01T17:56:34.746Z,20.57
2022-12-01T17:59:03.610Z,18.97
2022-12-01T18:01:31.114Z,20.90
2022-12-01T18:03:59.207Z,18.47
2022-12-01T18:06:26.941Z,19.17
2022-12-01T18:08:54.397Z,19.67
2022-12-01T18:11:22.792Z,19.30
2022-12-01T18:13:52.128Z,19.20
2022-12-01T18:16:22.620Z,18.57
2022-12-01T18:18:50.403Z,18.63
2022-12-01T18:21:19.253Z,17.83
2022-12-01T18:23:49.722Z,17.63
2022-12-01T18:26:17.271Z,17.70
2022-12-01T18:28:45.038Z,15.90
2022-12-01T18:31:13.415Z,16.30
2022-12-01T18:33:43.233Z,16.57
2022-12-01T18:36:12.067Z,15.23
2022-12-01T18:38:39.476Z,15.37
2022-12-01T18:41:06.899Z,15.43
2022-12-01T18:43:34.672Z,15.37
2022-12-01T18:46:03.528Z,15.13
2022-12-01T18:48:31.287Z,15.43
2022-12-01T18:51:03.940Z,14.87
2022-12-01T18:53:31.462Z,13.30
2022-12-01T18:56:02.161Z,14.63
2022-12-01T18:58:29.592Z,13.10
2022-12-01T19:00:57.046Z,14.43
2022-12-01T19:03:24.442Z,12.93
2022-12-01T19:05:51.953Z,13.67
2022-12-01T19:08:21.118Z,13.47
2022-12-01T19:10:58.136Z,13.43
2022-12-01T19:13:25.689Z,13.37
2022-12-01T19:15:53.169Z,13.40
2022-12-01T19:18:20.639Z,13.97
2022-12-01T19:20:48.094Z,13.50
2022-12-01T19:23:15.541Z,13.97
2022-12-01T19:25:44.380Z,13.37
2022-12-01T19:28:11.758Z,12.63
2022-12-01T19:30:43.989Z,13.33
2022-12-01T19:33:14.179Z,13.77
2022-12-01T19:35:41.605Z,13.83
2022-12-01T19:38:09.055Z,12.77
2022-12-01T19:40:38.347Z,14.17
2022-12-01T19:43:07.270Z,13.83
2022-12-01T19:45:37.408Z,13.17
2022-12-01T19:48:05.072Z,13.00
2022-12-01T19:50:34.348Z,13.90
2022-12-01T19:53:01.747Z,12.83
2022-12-01T19:55:29.170Z,14.17
2022-12-01T19:57:56.616Z,12.73
2022-12-01T20:00:25.871Z,13.17
2022-12-01T20:02:53.375Z,13.90
2022-12-01T20:05:21.848Z,13.63
2022-12-01T20:07:49.333Z,13.17
2022-12-01T20:10:19.992Z,14.37
2022-12-01T20:12:47.951Z,13.80
2022-12-01T20:15:15.722Z,15.17
2022-12-01T20:17:44.519Z,14.37
2022-12-01T20:20:12.490Z,14.73
2022-12-01T20:22:39.929Z,14.20
2022-12-01T20:25:09.122Z,14.20
2022-12-01T20:27:37.532Z,14.03
2022-12-01T20:30:05.406Z,13.90
2022-12-01T20:32:33.358Z,14.57
2022-12-01T20:35:02.143Z,14.10
2022-12-01T20:37:29.652Z,14.33
2022-12-01T20:39:57.730Z,13.60
2022-12-01T20:42:25.492Z,14.00
2022-12-01T20:44:53.249Z,13.43
2022-12-01T20:47:21.121Z,15.20
2022-12-01T20:49:48.579Z,15.10
2022-12-01T20:52:17.331Z,15.20
2022-12-01T20:54:44.850Z,15.77
2022-12-01T20:57:12.255Z,14.83
2022-12-01T20:59:39.671Z,14.67
2022-12-01T21:02:07.198Z,14.97
2022-12-01T21:04:34.661Z,14.77
2022-12-01T21:07:02.051Z,13.10
2022-12-01T21:09:30.956Z,14.47
2022-12-01T21:12:17.555Z,13.13
2022-12-01T21:14:48.565Z,12.73
2022-12-01T21:17:21.886Z,12.87
2022-12-01T21:19:53.483Z,12.67
2022-12-01T21:22:21.129Z,11.97
2022-12-01T21:24:51.806Z,12.47
2022-12-01T21:27:19.404Z,11.47
2022-12-01T21:29:47.500Z,11.80
2022-12-01T21:32:16.190Z,11.80
2022-12-01T21:34:45.089Z,12.27
2022-12-01T21:37:17.002Z,11.87
2022-12-01T21:39:44.405Z,11.23
2022-12-01T21:42:17.889Z,10.73
2022-12-01T21:44:45.506Z,11.13
2022-12-01T21:47:16.532Z,11.20
2022-12-01T21:49:44.611Z,11.57
2022-12-01T21:52:15.774Z,11.80
2022-12-01T21:54:43.163Z,10.90
2022-12-01T21:57:25.128Z,11.13
2022-12-01T21:59:54.889Z,10.90
2022-12-01T22:02:31.332Z,10.43
2022-12-01T22:04:59.778Z,10.90
2022-12-01T22:07:27.865Z,10.77
2022-12-01T22:09:55.290Z,10.80
2022-12-01T22:12:25.382Z,9.70
2022-12-01T22:14:54.565Z,9.40
2022-12-01T22:17:22.407Z,10.80
2022-12-01T22:19:54.743Z,10.33
2022-12-01T22:22:24.039Z,10.47
2022-12-01T22:24:52.488Z,9.60
2022-12-01T22:27:25.862Z,9.63
2022-12-01T22:29:57.085Z,9.73
2022-12-01T22:32:42.434Z,9.33
2022-12-01T22:35:30.865Z,9.63
2022-12-01T22:38:12.954Z,9.50
2022-12-01T22:40:41.291Z,9.63
2022-12-01T22:43:26.365Z,9.27
2022-12-01T22:46:01.862Z,9.70
2022-12-01T22:48:32.748Z,10.20
2022-12-01T22:51:01.913Z,9.80
2022-12-01T22:53:30.855Z,10.03
2022-12-01T22:56:00.680Z,10.37
2022-12-01T22:58:29.485Z,10.33
2022-12-01T23:00:58.100Z,10.07
2022-12-01T23:03:28.106Z,10.03
2022-12-01T23:05:57.138Z,10.13
2022-12-01T23:08:24.959Z,10.47
2022-12-01T23:10:52.371Z,10.17
2022-12-01T23:13:21.245Z,9.70
2022-12-01T23:15:50.286Z,10.30
2022-12-01T23:18:20.053Z,10.43
2022-12-01T23:20:50.123Z,9.77
2022-12-01T23:23:18.599Z,11.00
2022-12-01T23:25:46.743Z,10.80
2022-12-01T23:28:14.588Z,10.00
2022-12-01T23:30:42.741Z,10.17
2022-12-01T23:33:20.624Z,9.50
2022-12-01T23:35:52.359Z,10.10
2022-12-01T23:38:20.806Z,9.87
2022-12-01T23:40:48.408Z,9.77
2022-12-01T23:43:20.426Z,9.80
2022-12-01T23:45:49.316Z,9.67
2022-12-01T23:48:20.888Z,9.63
2022-12-01T23:50:50.282Z,8.93
2022-12-01T23:53:23.740Z,10.07
2022-12-01T23:55:51.162Z,9.60
2022-12-01T23:58:18.767Z,10.30
